createdAt,value
2019-02-24T00:01:51.546Z,62.30
2019-02-24T00:04:21.922Z,62.40
2019-02-24T00:06:52.244Z,62.50
2019-02-24T00:09:22.621Z,62.70
2019-02-24T00:11:52.966Z,63.10
2019-02-24T00:14:23.255Z,63.80
2019-02-24T00:16:53.593Z,64.30
2019-02-24T00:19:23.880Z,65.30
2019-02-24T00:21:54.275Z,65.90
2019-02-24T00:24:24.549Z,66.60
2019-02-24T00:26:54.910Z,67.20
2019-02-24T00:29:25.272Z,67.60
2019-02-24T00:31:55.605Z,67.90
2019-02-24T00:34:26.473Z,68.10
2019-02-24T00:36:56.774Z,68.40
2019-02-24T00:39:27.062Z,68.60
2019-02-24T00:41:57.491Z,68.70
2019-02-24T00:44:27.904Z,68.90
2019-02-24T00:46:58.194Z,69.40
2019-02-24T00:49:28.636Z,69.60
2019-02-24T00:51:58.940Z,70.10
2019-02-24T00:54:29.441Z,70.20
2019-02-24T00:56:59.775Z,70.40
2019-02-24T00:59:30.062Z,70.90
2019-02-24T01:02:00.387Z,70.70
2019-02-24T01:04:30.671Z,71.80
2019-02-24T01:07:01.044Z,71.80
2019-02-24T01:09:31.402Z,72.00
2019-02-24T01:12:01.705Z,72.20
2019-02-24T01:14:31.998Z,72.10
2019-02-24T01:17:02.778Z,72.20
2019-02-24T01:19:33.235Z,72.20
2019-02-24T01:22:03.561Z,72.30
2019-02-24T01:24:33.866Z,72.30
2019-02-24T01:27:04.219Z,72.30
2019-02-24T01:29:34.609Z,72.40
2019-02-24T01:32:04.898Z,72.40
2019-02-24T01:34:35.270Z,72.30
2019-02-24T01:37:05.553Z,72.10
2019-02-24T01:39:35.838Z,72.40
2019-02-24T01:42:06.146Z,72.40
2019-02-24T01:44:36.457Z,72.30
2019-02-24T01:47:06.813Z,72.30
2019-02-24T01:49:37.123Z,72.00
2019-02-24T01:52:07.512Z,72.00
2019-02-24T01:54:38.134Z,71.80
2019-02-24T01:57:08.385Z,71.70
2019-02-24T01:59:38.842Z,71.60
2019-02-24T02:02:09.126Z,71.60
2019-02-24T02:04:39.960Z,71.80
2019-02-24T02:07:10.277Z,71.80
2019-02-24T02:09:40.633Z,71.70
2019-02-24T02:12:11.024Z,71.60
2019-02-24T02:14:41.421Z,71.40
2019-02-24T02:17:11.737Z,71.10
2019-02-24T02:19:42.038Z,71.10
2019-02-24T02:22:12.313Z,70.30
2019-02-24T02:24:42.647Z,70.40
2019-02-24T02:27:12.953Z,70.10
2019-02-24T02:29:43.330Z,70.20
2019-02-24T02:32:13.606Z,70.00
2019-02-24T02:34:43.913Z,68.80
2019-02-24T02:37:14.207Z,68.30
2019-02-24T02:39:44.529Z,68.10
2019-02-24T02:42:14.835Z,67.70
2019-02-24T02:44:45.161Z,67.50
2019-02-24T02:47:15.468Z,66.70
2019-02-24T02:49:45.771Z,66.30
2019-02-24T02:52:16.115Z,66.30
2019-02-24T02:54:46.420Z,65.30
2019-02-24T02:57:16.689Z,64.60
2019-02-24T02:59:46.992Z,64.50
2019-02-24T03:02:24.028Z,64.00
2019-02-24T03:04:49.210Z,63.50
2019-02-24T03:07:26.880Z,63.90
2019-02-24T03:09:57.165Z,62.70
2019-02-24T03:12:27.536Z,62.10
2019-02-24T03:14:57.872Z,62.80
2019-02-24T03:17:28.552Z,62.70
2019-02-24T03:19:58.837Z,62.70
2019-02-24T03:22:29.113Z,62.20
2019-02-24T03:24:59.462Z,62.00
2019-02-24T03:27:29.748Z,60.80
2019-02-24T03:30:00.155Z,60.40
2019-02-24T03:32:30.531Z,59.20
2019-02-24T03:35:00.869Z,58.70
2019-02-24T03:37:31.165Z,58.50
2019-02-24T03:40:01.461Z,58.10
2019-02-24T03:42:31.742Z,58.20
2019-02-24T03:45:02.082Z,58.40
2019-02-24T03:47:32.360Z,58.80
2019-02-24T03:50:02.697Z,58.20
2019-02-24T03:52:32.984Z,58.40
2019-02-24T03:55:03.338Z,60.00
2019-02-24T03:57:33.600Z,62.50
2019-02-24T04:00:03.993Z,63.50
2019-02-24T04:02:34.325Z,64.00
2019-02-24T04:05:04.982Z,64.90
2019-02-24T04:07:35.255Z,65.70
2019-02-24T04:10:05.837Z,66.00
2019-02-24T04:12:36.132Z,66.00
2019-02-24T04:15:06.945Z,65.70
2019-02-24T04:17:37.223Z,65.00
2019-02-24T04:20:07.971Z,65.10
2019-02-24T04:22:38.876Z,65.00
2019-02-24T04:25:09.162Z,64.80
2019-02-24T04:27:39.505Z,64.10
2019-02-24T04:30:09.865Z,63.00
2019-02-24T04:32:40.501Z,62.20
2019-02-24T04:35:10.783Z,61.60
2019-02-24T04:37:41.117Z,60.70
2019-02-24T04:40:11.419Z,60.00
2019-02-24T04:42:41.773Z,59.80
2019-02-24T04:45:12.052Z,59.80
2019-02-24T04:47:42.371Z,60.20
2019-02-24T04:50:12.735Z,60.20
2019-02-24T04:52:43.029Z,59.90
2019-02-24T04:55:13.342Z,59.80
2019-02-24T04:57:43.668Z,59.90
2019-02-24T05:00:13.982Z,60.00
2019-02-24T05:02:44.296Z,59.60
2019-02-24T05:05:14.665Z,59.20
2019-02-24T05:07:44.960Z,59.10
2019-02-24T05:10:15.232Z,59.10
2019-02-24T05:12:45.546Z,59.10
2019-02-24T05:15:15.860Z,59.20
2019-02-24T05:17:46.140Z,59.20
2019-02-24T05:20:16.436Z,59.20
2019-02-24T05:22:46.737Z,59.00
2019-02-24T05:25:17.013Z,58.80
2019-02-24T05:27:47.297Z,58.90
2019-02-24T05:30:17.605Z,58.90
2019-02-24T05:32:47.888Z,59.00
2019-02-24T05:35:18.186Z,58.30
2019-02-24T05:37:48.464Z,58.40
2019-02-24T05:40:18.821Z,58.20
2019-02-24T05:42:49.112Z,58.30
2019-02-24T05:45:19.389Z,58.70
2019-02-24T05:47:49.749Z,58.60
2019-02-24T05:50:20.078Z,58.60
2019-02-24T05:52:50.414Z,58.40
2019-02-24T05:55:20.684Z,58.50
2019-02-24T05:57:51.056Z,58.50
2019-02-24T06:00:21.345Z,58.70
2019-02-24T06:02:51.658Z,58.60
2019-02-24T06:05:21.941Z,58.90
2019-02-24T06:07:52.253Z,59.30
2019-02-24T06:10:22.527Z,60.50
2019-02-24T06:12:52.840Z,61.50
2019-02-24T06:15:23.123Z,62.40
2019-02-24T06:17:53.435Z,63.20
2019-02-24T06:20:23.718Z,62.90
2019-02-24T06:22:54.081Z,62.70
2019-02-24T06:25:24.569Z,62.00
2019-02-24T06:27:55.044Z,62.50
2019-02-24T06:30:25.432Z,62.80
2019-02-24T06:32:55.809Z,63.40
2019-02-24T06:35:26.109Z,63.70
2019-02-24T06:37:56.406Z,63.70
2019-02-24T06:40:26.777Z,63.80
2019-02-24T06:42:57.093Z,64.20
2019-02-24T06:45:27.410Z,64.40
2019-02-24T06:47:57.721Z,64.60
2019-02-24T06:50:35.297Z,64.70
2019-02-24T06:53:02.440Z,65.00
2019-02-24T06:55:32.709Z,65.10
2019-02-24T06:58:03.053Z,65.20
2019-02-24T07:00:33.335Z,65.10
2019-02-24T07:03:03.646Z,64.30
2019-02-24T07:05:33.917Z,63.80
2019-02-24T07:08:04.222Z,62.90
2019-02-24T07:10:34.497Z,62.10
2019-02-24T07:13:04.801Z,61.10
2019-02-24T07:15:35.082Z,60.50
2019-02-24T07:18:05.406Z,59.90
2019-02-24T07:20:35.770Z,61.00
2019-02-24T07:23:06.090Z,62.30
2019-02-24T07:25:36.447Z,61.50
2019-02-24T07:28:06.756Z,60.70
2019-02-24T07:30:39.503Z,59.90
2019-02-24T07:33:08.982Z,59.70
2019-02-24T07:35:40.370Z,59.50
2019-02-24T07:38:10.645Z,59.40
2019-02-24T07:40:41.383Z,58.90
2019-02-24T07:43:11.648Z,59.00
2019-02-24T07:45:41.921Z,59.20
2019-02-24T07:48:12.206Z,59.40
2019-02-24T07:50:42.670Z,59.40
2019-02-24T07:53:12.950Z,59.30
2019-02-24T07:55:43.268Z,59.20
2019-02-24T07:58:13.557Z,58.90
2019-02-24T08:00:43.929Z,59.10
2019-02-24T08:03:14.248Z,59.50
2019-02-24T08:05:45.742Z,59.40
2019-02-24T08:08:16.734Z,59.70
2019-02-24T08:10:47.219Z,59.70
2019-02-24T08:13:17.533Z,59.40
2019-02-24T08:15:47.848Z,58.70
2019-02-24T08:18:18.155Z,58.50
2019-02-24T08:20:48.468Z,58.60
2019-02-24T08:23:18.734Z,58.70
2019-02-24T08:25:49.026Z,59.10
2019-02-24T08:28:19.340Z,59.00
2019-02-24T08:30:49.634Z,58.70
2019-02-24T08:36:07.482Z,58.70
2019-02-24T08:38:40.443Z,58.40
2019-02-24T08:41:10.942Z,58.20
2019-02-24T08:43:41.372Z,58.20
2019-02-24T08:46:11.660Z,58.20
2019-02-24T08:48:42.085Z,58.00
2019-02-24T08:51:12.521Z,57.80
2019-02-24T08:53:42.993Z,57.50
2019-02-24T08:56:14.251Z,57.10
2019-02-24T08:58:44.565Z,57.00
2019-02-24T09:01:15.037Z,56.90
2019-02-24T09:03:45.669Z,57.20
2019-02-24T09:06:16.066Z,57.20
2019-02-24T09:08:46.372Z,57.10
2019-02-24T09:11:18.035Z,56.70
2019-02-24T09:13:48.489Z,56.50
2019-02-24T09:16:18.807Z,56.00
2019-02-24T09:18:49.106Z,55.20
2019-02-24T09:21:19.398Z,55.20
2019-02-24T09:23:49.766Z,54.40
2019-02-24T09:26:20.059Z,52.20
2019-02-24T09:28:50.942Z,51.80
2019-02-24T09:31:21.338Z,52.00
2019-02-24T09:33:51.621Z,51.80
2019-02-24T09:36:21.982Z,51.30
2019-02-24T09:38:52.417Z,51.40
2019-02-24T09:41:22.701Z,51.30
2019-02-24T09:43:52.977Z,49.00
2019-02-24T09:46:23.333Z,49.00
2019-02-24T09:48:53.717Z,48.00
2019-02-24T09:51:24.089Z,48.00
2019-02-24T09:53:55.104Z,47.30
2019-02-24T09:56:25.401Z,46.90
2019-02-24T09:58:55.678Z,47.40
2019-02-24T10:01:26.089Z,47.80
2019-02-24T10:03:56.358Z,47.70
2019-02-24T10:06:26.661Z,46.90
2019-02-24T10:08:56.942Z,47.30
2019-02-24T10:11:27.241Z,47.70
2019-02-24T10:13:57.517Z,48.00
2019-02-24T10:16:27.422Z,46.70
2019-02-24T10:18:57.865Z,45.60
2019-02-24T10:21:28.145Z,45.50
2019-02-24T10:23:58.455Z,45.80
2019-02-24T10:26:30.716Z,46.20
2019-02-24T10:29:00.990Z,45.90
2019-02-24T10:31:31.398Z,45.40
2019-02-24T10:34:04.871Z,45.50
2019-02-24T10:36:35.536Z,45.90
2019-02-24T10:39:07.601Z,46.30
2019-02-24T10:41:38.481Z,46.40
2019-02-24T10:44:08.781Z,45.40
2019-02-24T10:46:39.318Z,45.00
2019-02-24T10:49:09.695Z,44.70
2019-02-24T10:51:40.059Z,42.60
2019-02-24T10:54:10.348Z,41.60
2019-02-24T10:56:40.880Z,41.60
2019-02-24T10:59:11.157Z,41.60
2019-02-24T11:01:41.681Z,41.00
2019-02-24T11:04:13.439Z,41.00
2019-02-24T11:06:43.757Z,40.10
2019-02-24T11:09:14.122Z,40.60
2019-02-24T11:11:44.555Z,40.60
2019-02-24T11:14:14.824Z,39.10
2019-02-24T11:16:45.268Z,38.80
2019-02-24T11:19:15.632Z,37.40
2019-02-24T11:21:45.969Z,36.40
2019-02-24T11:24:16.258Z,36.80
2019-02-24T11:26:46.589Z,35.60
2019-02-24T11:29:16.893Z,35.60
2019-02-24T11:31:47.232Z,35.20
2019-02-24T11:34:17.561Z,35.30
2019-02-24T11:36:47.860Z,33.20
2019-02-24T11:39:18.494Z,33.40
2019-02-24T11:41:48.786Z,33.40
2019-02-24T11:44:19.057Z,34.30
2019-02-24T11:46:49.547Z,34.70
2019-02-24T11:49:19.941Z,33.10
2019-02-24T11:51:51.003Z,33.60
2019-02-24T11:54:21.272Z,35.60
2019-02-24T11:56:51.980Z,36.20
2019-02-24T11:59:35.958Z,36.10
2019-02-24T12:02:13.849Z,35.20
2019-02-24T12:04:54.077Z,35.10
2019-02-24T12:07:31.224Z,34.20
2019-02-24T12:10:06.092Z,34.20
2019-02-24T12:12:36.461Z,33.00
2019-02-24T12:15:07.959Z,33.00
2019-02-24T12:17:38.501Z,33.30
2019-02-24T12:20:10.253Z,33.30
2019-02-24T12:22:40.867Z,32.90
2019-02-24T12:25:11.261Z,32.90
2019-02-24T12:27:41.654Z,32.50
2019-02-24T12:30:12.006Z,31.40
2019-02-24T12:32:42.301Z,31.90
2019-02-24T12:35:12.601Z,31.40
2019-02-24T12:37:42.895Z,31.10
2019-02-24T12:40:13.351Z,31.40
2019-02-24T12:42:43.689Z,31.40
2019-02-24T12:45:13.999Z,31.40
2019-02-24T12:47:44.515Z,31.40
2019-02-24T12:50:15.059Z,31.70
2019-02-24T12:52:48.732Z,31.20
2019-02-24T12:55:19.061Z,31.20
2019-02-24T12:57:49.345Z,30.90
2019-02-24T13:00:19.957Z,31.20
2019-02-24T13:02:50.272Z,31.00
2019-02-24T13:05:20.565Z,30.80
2019-02-24T13:07:50.946Z,30.90
2019-02-24T13:10:21.232Z,29.60
2019-02-24T13:12:51.523Z,29.00
2019-02-24T13:15:21.831Z,29.10
2019-02-24T13:17:52.168Z,29.00
2019-02-24T13:20:22.579Z,28.60
2019-02-24T13:22:53.033Z,28.20
2019-02-24T13:25:23.418Z,28.40
2019-02-24T13:27:53.743Z,28.40
2019-02-24T13:30:24.221Z,27.50
2019-02-24T13:32:54.520Z,27.40
2019-02-24T13:35:24.889Z,26.50
2019-02-24T13:37:55.209Z,27.10
2019-02-24T13:40:25.522Z,27.40
2019-02-24T13:42:55.893Z,27.40
2019-02-24T13:45:26.959Z,26.70
2019-02-24T13:47:57.265Z,26.00
2019-02-24T13:50:27.628Z,26.20
2019-02-24T13:52:57.933Z,25.70
2019-02-24T13:55:28.255Z,26.40
2019-02-24T13:57:58.649Z,26.90
2019-02-24T14:00:29.089Z,26.30
2019-02-24T14:02:59.387Z,26.40
2019-02-24T14:05:29.728Z,27.10
2019-02-24T14:08:00.089Z,27.50
2019-02-24T14:10:33.332Z,27.30
2019-02-24T14:13:03.169Z,27.10
2019-02-24T14:15:33.543Z,27.20
2019-02-24T14:18:03.801Z,27.00
2019-02-24T14:20:34.109Z,27.20
2019-02-24T14:23:04.538Z,27.40
2019-02-24T14:25:34.873Z,27.10
2019-02-24T14:28:05.217Z,27.30
2019-02-24T14:30:35.529Z,27.10
2019-02-24T14:33:05.828Z,26.80
2019-02-24T14:35:36.149Z,27.00
2019-02-24T14:38:06.925Z,26.70
2019-02-24T14:40:37.271Z,26.40
2019-02-24T14:43:07.749Z,26.40
2019-02-24T14:45:38.190Z,26.40
2019-02-24T14:48:08.518Z,26.90
2019-02-24T14:50:39.177Z,25.80
2019-02-24T14:53:09.468Z,25.90
2019-02-24T14:55:39.991Z,25.90
2019-02-24T14:58:10.384Z,25.60
2019-02-24T15:00:40.881Z,25.50
2019-02-24T15:03:11.159Z,25.60
2019-02-24T15:05:41.810Z,25.60
2019-02-24T15:08:12.213Z,25.60
2019-02-24T15:10:42.510Z,25.90
2019-02-24T15:13:12.857Z,25.50
2019-02-24T15:15:43.165Z,25.60
2019-02-24T15:18:13.438Z,25.30
2019-02-24T15:20:43.790Z,25.30
2019-02-24T15:23:14.150Z,25.20
2019-02-24T15:25:44.490Z,25.40
2019-02-24T15:28:14.782Z,25.10
2019-02-24T15:30:45.154Z,24.80
2019-02-24T15:33:15.538Z,24.70
2019-02-24T15:35:45.897Z,24.80
2019-02-24T15:38:16.194Z,24.90
2019-02-24T15:40:46.582Z,25.00
2019-02-24T15:43:16.970Z,24.50
2019-02-24T15:45:47.697Z,24.30
2019-02-24T15:48:18.008Z,24.00
2019-02-24T15:50:48.361Z,23.70
2019-02-24T15:53:18.718Z,23.50
2019-02-24T15:55:49.006Z,23.70
2019-02-24T15:58:19.300Z,23.60
2019-02-24T16:00:49.581Z,23.60
2019-02-24T16:03:19.878Z,23.90
2019-02-24T16:05:50.161Z,24.20
2019-02-24T16:08:20.449Z,24.60
2019-02-24T16:10:50.777Z,24.60
2019-02-24T16:13:21.075Z,24.80
2019-02-24T16:15:51.369Z,24.70
2019-02-24T16:18:21.645Z,24.40
2019-02-24T16:20:51.952Z,24.60
2019-02-24T16:23:29.389Z,24.90
2019-02-24T16:26:16.746Z,25.70
2019-02-24T16:28:59.899Z,27.00
2019-02-24T16:31:34.877Z,27.10
2019-02-24T16:34:18.308Z,28.00
2019-02-24T16:36:58.802Z,27.70
2019-02-24T16:39:33.949Z,28.50
2019-02-24T16:42:10.917Z,28.70
2019-02-24T16:44:46.711Z,29.10
2019-02-24T16:47:19.202Z,29.40
2019-02-24T16:49:55.039Z,29.60
2019-02-24T16:52:28.906Z,29.80
2019-02-24T16:55:01.981Z,29.80
2019-02-24T16:57:39.439Z,29.90
2019-02-24T17:00:19.861Z,30.30
2019-02-24T17:05:42.641Z,30.80
2019-02-24T17:08:13.183Z,31.20
2019-02-24T17:11:07.032Z,31.80
2019-02-24T17:13:39.319Z,31.60
2019-02-24T17:16:17.457Z,31.90
2019-02-24T17:18:53.336Z,32.10
2019-02-24T17:21:27.286Z,31.90
2019-02-24T17:24:00.852Z,32.10
2019-02-24T17:26:32.442Z,32.80
2019-02-24T17:29:02.876Z,32.30
2019-02-24T17:31:33.877Z,32.60
2019-02-24T17:34:04.204Z,32.70
2019-02-24T17:36:34.776Z,32.80
2019-02-24T17:39:08.697Z,33.00
2019-02-24T17:41:47.740Z,33.20
2019-02-24T17:44:19.243Z,33.30
2019-02-24T17:46:56.305Z,33.40
2019-02-24T17:49:29.981Z,33.50
2019-02-24T17:52:00.305Z,33.40
2019-02-24T17:54:30.581Z,33.20
2019-02-24T17:57:01.403Z,33.60
2019-02-24T17:59:39.936Z,34.00
2019-02-24T18:02:04.074Z,33.40
2019-02-24T18:04:36.039Z,33.10
2019-02-24T18:07:06.341Z,33.10
2019-02-24T18:09:43.763Z,33.20
2019-02-24T18:12:15.337Z,33.20
2019-02-24T18:14:46.881Z,33.70
2019-02-24T18:17:19.760Z,34.10
2019-02-24T18:19:55.368Z,34.20
2019-02-24T18:22:29.215Z,34.10
2019-02-24T18:25:03.132Z,34.20
2019-02-24T18:27:31.712Z,34.10
2019-02-24T18:30:03.868Z,34.10
2019-02-24T18:32:34.329Z,34.20
2019-02-24T18:35:06.473Z,34.10
2019-02-24T18:37:43.323Z,33.90
2019-02-24T18:40:20.284Z,34.20
2019-02-24T18:43:00.868Z,34.20
2019-02-24T18:45:35.875Z,33.90
2019-02-24T18:48:14.667Z,33.90
2019-02-24T18:50:53.979Z,33.90
2019-02-24T18:53:28.328Z,34.00
2019-02-24T18:56:01.724Z,34.20
2019-02-24T18:58:39.011Z,34.80
2019-02-24T19:01:12.083Z,34.20
2019-02-24T19:03:59.522Z,34.40
2019-02-24T19:06:38.726Z,34.60
2019-02-24T19:09:01.982Z,34.80
2019-02-24T19:11:32.320Z,34.80
2019-02-24T19:14:02.739Z,35.20
2019-02-24T19:16:33.256Z,35.10
2019-02-24T19:19:03.708Z,35.30
2019-02-24T19:21:34.793Z,35.20
2019-02-24T19:24:05.125Z,35.10
2019-02-24T19:26:35.409Z,35.00
2019-02-24T19:29:06.511Z,35.00
2019-02-24T19:31:36.729Z,35.00
2019-02-24T19:34:07.137Z,35.10
2019-02-24T19:36:37.461Z,35.20
2019-02-24T19:39:09.443Z,35.10
2019-02-24T19:41:40.777Z,35.60
2019-02-24T19:44:12.855Z,35.20
2019-02-24T19:46:43.716Z,35.20
2019-02-24T19:49:15.355Z,36.10
2019-02-24T19:51:46.546Z,36.30
2019-02-24T19:54:18.061Z,36.40
2019-02-24T19:56:49.927Z,36.50
2019-02-24T19:59:21.562Z,36.60
2019-02-24T20:01:52.080Z,36.60
2019-02-24T20:04:24.575Z,36.80
2019-02-24T20:06:57.555Z,37.00
2019-02-24T20:09:29.200Z,37.00
2019-02-24T20:12:01.516Z,37.20
2019-02-24T20:14:34.295Z,37.20
2019-02-24T20:17:05.971Z,37.50
2019-02-24T20:19:40.175Z,37.50
2019-02-24T20:22:11.956Z,37.40
2019-02-24T20:24:43.571Z,37.50
2019-02-24T20:27:15.560Z,37.40
2019-02-24T20:29:47.461Z,37.50
2019-02-24T20:32:19.220Z,37.70
2019-02-24T20:34:49.841Z,37.90
2019-02-24T20:37:21.602Z,38.00
2019-02-24T20:39:54.867Z,38.10
2019-02-24T20:42:27.536Z,38.30
2019-02-24T20:44:59.447Z,38.10
2019-02-24T20:47:30.714Z,37.90
2019-02-24T20:50:05.047Z,38.30
2019-02-24T20:52:37.068Z,37.80
2019-02-24T20:55:08.741Z,37.80
2019-02-24T20:57:42.849Z,37.80
2019-02-24T21:00:22.972Z,38.00
2019-02-24T21:02:54.880Z,38.10
2019-02-24T21:05:26.994Z,37.70
2019-02-24T21:07:57.983Z,37.00
2019-02-24T21:10:29.251Z,37.80
2019-02-24T21:13:00.002Z,38.00
2019-02-24T21:15:32.019Z,38.20
2019-02-24T21:18:03.635Z,37.00
2019-02-24T21:20:33.997Z,36.40
2019-02-24T21:23:07.443Z,36.50
2019-02-24T21:25:39.299Z,36.50
2019-02-24T21:28:09.633Z,36.70
2019-02-24T21:30:40.041Z,37.10
2019-02-24T21:33:11.768Z,37.40
2019-02-24T21:35:42.107Z,37.60
2019-02-24T21:38:12.395Z,36.50
2019-02-24T21:40:42.727Z,37.00
2019-02-24T21:43:13.123Z,37.60
2019-02-24T21:45:43.450Z,37.10
2019-02-24T21:48:13.748Z,37.10
2019-02-24T21:50:44.067Z,37.80
2019-02-24T21:53:14.414Z,38.20
2019-02-24T21:55:45.136Z,37.50
2019-02-24T21:58:15.532Z,37.00
2019-02-24T22:00:45.936Z,37.10
2019-02-24T22:03:16.220Z,37.50
2019-02-24T22:05:46.609Z,37.70
2019-02-24T22:08:16.892Z,37.30
2019-02-24T22:10:47.189Z,36.80
2019-02-24T22:13:17.469Z,37.00
2019-02-24T22:15:47.876Z,37.90
2019-02-24T22:18:18.514Z,38.70
2019-02-24T22:20:49.042Z,39.40
2019-02-24T22:23:19.353Z,39.20
2019-02-24T22:25:49.634Z,39.10
2019-02-24T22:28:20.032Z,39.00
2019-02-24T22:30:50.384Z,38.90
2019-02-24T22:33:20.666Z,38.70
2019-02-24T22:35:50.944Z,38.40
2019-02-24T22:38:21.292Z,37.90
2019-02-24T22:40:54.335Z,37.60
2019-02-24T22:43:23.537Z,37.10
2019-02-24T22:45:53.856Z,36.40
2019-02-24T22:48:27.162Z,36.00
2019-02-24T22:50:57.493Z,36.00
2019-02-24T22:53:27.838Z,35.80
2019-02-24T22:55:58.113Z,35.70
2019-02-24T22:58:28.400Z,35.70
2019-02-24T23:01:11.539Z,35.50
2019-02-24T23:03:43.879Z,34.50
2019-02-24T23:06:14.109Z,34.70
2019-02-24T23:08:44.584Z,34.90
2019-02-24T23:11:15.066Z,35.30
2019-02-24T23:13:45.398Z,35.30
2019-02-24T23:16:15.677Z,35.20
2019-02-24T23:18:45.970Z,34.80
2019-02-24T23:21:16.251Z,34.60
2019-02-24T23:23:46.613Z,34.90
2019-02-24T23:26:17.740Z,34.60
2019-02-24T23:28:48.414Z,34.40
2019-02-24T23:31:19.104Z,34.40
2019-02-24T23:33:50.163Z,34.50
2019-02-24T23:36:21.052Z,34.70
2019-02-24T23:38:52.554Z,34.80
2019-02-24T23:41:22.973Z,34.60
2019-02-24T23:43:54.059Z,34.20
2019-02-24T23:46:24.836Z,34.10
2019-02-24T23:48:55.796Z,33.60
2019-02-24T23:51:27.224Z,33.60
2019-02-24T23:53:57.603Z,34.00
2019-02-24T23:56:28.285Z,34.20
2019-02-24T23:59:00.149Z,34.40
